Accueil
METAR-TAF:

METAR-TAF

Aéroports :

Aéroport international de Gafsa-Ksar

Gafsa, Tunisie

latitude: 34-25N, longitude: 008-49E, altitude: 313 m

Observation

Le bulletin a été fait il y a 1 heure et 3 minutes, à 18:00 UTC
Vent 5 kt de sud
Température 21°C
Humidité 38%
Pression 1021 hPa
Visibilité 10 km ou plus
Quelques nuages à une hauteur de 2600 ft

METAR: DTTF 061800Z 17005KT 9999 FEW026 21/06 Q1021

Heure: 20:03 (19:03 UTC)

Prévision

Le bulletin a été fait il y a 1 heure et 3 minutes, à 18:00 UTC
Prévision valable du 06 à 19 UTC au 07 à 04 UTC
Vent 10 kt de est
Visibilité 10 km ou plus
Quelques nuages à une hauteur de 2600 ft
Evoluant progressivement
du 06 à 22 UTC au 06 à 24 UTC
Vent 8 kt de nord-est

TAF: DTTF 061800Z 0619/0704 10010KT 9999 FEW026 BECMG 0622/0624 04008KT

Observations et prévisions météorologiques de plus de 4000 aéroports (messages METAR et TAF).

Les stations disponibles sont représentées par des disques jaunes et rouges sur la carte.

Passer la souris dessus pour voir le nom de la station.

Cliquer dessus pour voir les observations et prévisions météorologiques.

Pour changer de carte: cliquez sur les boutons verts avec une croix noire pour zoomer, sur le bouton vert avec un tiret pour effectuer un zoom arrière, ou sur les flèches vertes pour les cartes adjacentes.


METAR-TAF: